createdAt,value
2018-06-14T00:00:43.090Z,98856.39
2018-06-14T00:03:11.622Z,98873.64
2018-06-14T00:05:40.119Z,98893.94
2018-06-14T00:08:08.631Z,98864.51
2018-06-14T00:10:37.123Z,98898.00
2018-06-14T00:13:06.726Z,98858.42
2018-06-14T00:15:35.388Z,98852.33
2018-06-14T00:18:03.976Z,98794.48
2018-06-14T00:20:34.962Z,98731.55
2018-06-14T00:23:03.580Z,98736.63
2018-06-14T00:25:32.071Z,98757.94
2018-06-14T00:28:02.578Z,98713.28
2018-06-14T00:30:31.218Z,98697.05
2018-06-14T00:33:00.947Z,98723.43
2018-06-14T00:35:29.417Z,98735.61
2018-06-14T00:37:57.930Z,98711.25
2018-06-14T00:40:26.395Z,98674.72
2018-06-14T00:42:55.082Z,98673.70
2018-06-14T00:45:24.819Z,98668.63
2018-06-14T00:47:53.289Z,98672.69
2018-06-14T00:50:21.798Z,98644.27
2018-06-14T00:52:50.265Z,98673.70
2018-06-14T00:55:20.362Z,98668.63
2018-06-14T00:57:48.963Z,98669.64
2018-06-14T01:00:17.462Z,98669.64
2018-06-14T01:02:45.967Z,98650.36
2018-06-14T01:05:14.485Z,98647.31
2018-06-14T01:07:42.957Z,98654.42
2018-06-14T01:10:11.474Z,98658.48
2018-06-14T01:12:39.971Z,98642.23
2018-06-14T01:15:08.459Z,98628.03
2018-06-14T01:17:36.956Z,98635.13
2018-06-14T01:20:05.819Z,98639.19
2018-06-14T01:22:34.492Z,98622.95
2018-06-14T01:25:02.977Z,98624.98
2018-06-14T01:27:31.462Z,98633.11
2018-06-14T01:30:00.405Z,98665.58
2018-06-14T01:32:28.889Z,98652.39
2018-06-14T01:34:57.414Z,98656.45
2018-06-14T01:37:37.607Z,98656.45
2018-06-14T01:40:06.095Z,98664.56
2018-06-14T01:42:34.573Z,98670.66
2018-06-14T01:45:03.089Z,98651.37
2018-06-14T01:47:31.663Z,98664.56
2018-06-14T01:50:00.145Z,98635.13
2018-06-14T01:52:28.605Z,98668.63
2018-06-14T01:54:57.246Z,98676.75
2018-06-14T01:57:25.733Z,98655.43
2018-06-14T01:59:54.249Z,98672.69
2018-06-14T02:02:22.759Z,98656.45
2018-06-14T02:04:51.218Z,98661.52
2018-06-14T02:07:20.129Z,98652.39
2018-06-14T02:09:48.623Z,98630.06
2018-06-14T02:12:17.242Z,98629.05
2018-06-14T02:14:45.771Z,98664.56
2018-06-14T02:17:14.274Z,98699.07
2018-06-14T02:19:42.773Z,98632.09
2018-06-14T02:22:11.275Z,98651.37
2018-06-14T02:24:39.767Z,98650.36
2018-06-14T02:27:08.599Z,98667.61
2018-06-14T02:29:37.090Z,98668.63
2018-06-14T02:33:35.024Z,98676.75
2018-06-14T02:36:03.609Z,98673.70
2018-06-14T02:38:32.108Z,98672.69
2018-06-14T02:41:00.793Z,98695.02
2018-06-14T02:43:29.292Z,98710.23
2018-06-14T02:45:57.923Z,98687.91
2018-06-14T02:48:26.660Z,98736.63
2018-06-14T02:50:55.268Z,98709.22
2018-06-14T02:53:23.772Z,98721.41
2018-06-14T02:55:52.445Z,98699.07
2018-06-14T02:58:21.176Z,98720.39
2018-06-14T03:00:49.666Z,98686.89
2018-06-14T03:03:18.158Z,98676.75
2018-06-14T03:05:46.684Z,98669.64
2018-06-14T03:08:15.182Z,98706.17
2018-06-14T03:10:43.711Z,98704.15
2018-06-14T03:13:12.209Z,98705.16
2018-06-14T03:15:40.819Z,98700.09
2018-06-14T03:18:09.350Z,98686.89
2018-06-14T03:20:37.849Z,98696.03
2018-06-14T03:23:06.422Z,98682.83
2018-06-14T03:25:34.955Z,98717.34
2018-06-14T03:28:03.459Z,98661.52
2018-06-14T03:30:32.026Z,98656.45
2018-06-14T03:33:00.578Z,98630.06
2018-06-14T03:35:29.102Z,98609.77
2018-06-14T03:37:57.646Z,98662.53
2018-06-14T03:40:26.727Z,98629.05
2018-06-14T03:42:55.278Z,98645.28
2018-06-14T03:45:28.051Z,98624.98
2018-06-14T03:47:56.545Z,98608.75
2018-06-14T03:50:25.058Z,98608.75
2018-06-14T03:52:53.683Z,98603.67
2018-06-14T03:55:22.278Z,98596.56
2018-06-14T03:57:50.775Z,98559.02
2018-06-14T04:00:19.298Z,98547.86
2018-06-14T04:02:47.851Z,98550.90
2018-06-14T04:05:16.406Z,98516.39
2018-06-14T04:07:44.891Z,98483.92
2018-06-14T04:10:13.439Z,98464.64
2018-06-14T04:12:41.981Z,98464.64
2018-06-14T04:15:10.478Z,98456.52
2018-06-14T04:17:38.989Z,98469.71
2018-06-14T04:20:07.663Z,98419.98
2018-06-14T04:22:36.172Z,98438.25
2018-06-14T04:25:04.804Z,98398.67
2018-06-14T04:27:33.450Z,98370.26
2018-06-14T04:30:02.343Z,98318.50
2018-06-14T04:32:30.895Z,98394.61
2018-06-14T04:34:59.407Z,98350.98
2018-06-14T04:37:27.950Z,98378.37
2018-06-14T04:39:56.472Z,98349.96
2018-06-14T04:42:25.035Z,98364.17
2018-06-14T04:44:53.732Z,98341.84
2018-06-14T04:47:22.225Z,98314.44
2018-06-14T04:49:50.741Z,98270.80
2018-06-14T04:52:19.736Z,98340.83
2018-06-14T04:54:48.815Z,98337.78
2018-06-14T04:57:17.729Z,98280.95
2018-06-14T04:59:46.260Z,98295.16
2018-06-14T05:02:14.934Z,98324.59
2018-06-14T05:04:43.461Z,98263.70
2018-06-14T05:07:12.004Z,98253.55
2018-06-14T05:09:40.502Z,98242.39
2018-06-14T05:12:08.990Z,98212.97
2018-06-14T05:14:37.582Z,98068.88
2018-06-14T05:17:06.158Z,98012.05
2018-06-14T05:19:34.690Z,98037.41
2018-06-14T05:22:03.171Z,98025.23
2018-06-14T05:24:31.808Z,97943.05
2018-06-14T05:27:00.295Z,97702.58
2018-06-14T05:29:28.873Z,97736.05
2018-06-14T05:31:57.366Z,97744.17
2018-06-14T05:34:25.878Z,97756.35
2018-06-14T05:36:54.409Z,97794.91
2018-06-14T05:39:22.930Z,97708.66
2018-06-14T05:41:51.434Z,97571.69
2018-06-14T05:44:19.982Z,97558.50
2018-06-14T05:46:48.515Z,97529.08
2018-06-14T05:49:17.003Z,97636.63
2018-06-14T05:51:45.646Z,97700.55
2018-06-14T05:54:14.156Z,97540.23
2018-06-14T05:56:42.678Z,97401.24
2018-06-14T05:59:11.228Z,97519.95
2018-06-14T06:01:39.747Z,97627.48
2018-06-14T06:04:08.271Z,97344.43
2018-06-14T06:06:36.818Z,97350.52
2018-06-14T06:09:09.078Z,97484.44
2018-06-14T06:11:37.603Z,97372.84
2018-06-14T06:14:06.145Z,97337.33
2018-06-14T06:16:34.639Z,97444.87
2018-06-14T06:19:03.739Z,97397.19
2018-06-14T06:21:32.495Z,97329.21
2018-06-14T06:24:01.065Z,97292.69
2018-06-14T06:26:29.565Z,97273.41
2018-06-14T06:28:58.086Z,97248.05
2018-06-14T06:31:26.796Z,97388.05
2018-06-14T06:33:55.304Z,97340.37
2018-06-14T06:36:23.852Z,97371.82
2018-06-14T06:38:52.592Z,97318.05
2018-06-14T06:41:21.095Z,97248.05
2018-06-14T06:43:49.610Z,97171.97
2018-06-14T06:46:18.274Z,97367.77
2018-06-14T06:48:47.249Z,97337.33
2018-06-14T06:51:16.052Z,97186.17
2018-06-14T06:53:44.581Z,97153.70
2018-06-14T06:56:13.057Z,97034.00
2018-06-14T06:58:41.653Z,96977.20
2018-06-14T07:01:10.127Z,97238.92
2018-06-14T07:03:38.642Z,97153.70
2018-06-14T07:06:07.394Z,97082.70
2018-06-14T07:08:35.870Z,97159.80
2018-06-14T07:11:04.374Z,96993.42
2018-06-14T07:13:32.861Z,97132.41
2018-06-14T07:16:01.566Z,97128.34
2018-06-14T07:18:30.102Z,97290.66
2018-06-14T07:20:58.586Z,97488.50
2018-06-14T07:23:27.112Z,97458.05
2018-06-14T07:25:55.623Z,97441.83
2018-06-14T07:28:24.127Z,97425.59
2018-06-14T07:30:52.650Z,97396.17
2018-06-14T07:33:21.210Z,97435.73
2018-06-14T07:35:49.711Z,97442.84
2018-06-14T07:38:18.237Z,97398.20
2018-06-14T07:40:46.763Z,97388.05
2018-06-14T07:43:15.287Z,97459.07
2018-06-14T07:45:44.518Z,97413.42
2018-06-14T07:48:12.998Z,97430.66
2018-06-14T07:50:41.482Z,97440.81
2018-06-14T07:53:10.000Z,97472.27
2018-06-14T07:55:38.503Z,97422.55
2018-06-14T07:58:07.070Z,97376.89
2018-06-14T08:00:35.554Z,97354.58
2018-06-14T08:03:04.122Z,97291.67
2018-06-14T08:05:32.637Z,97315.01
2018-06-14T08:08:01.188Z,97295.73
2018-06-14T08:10:29.700Z,97349.50
2018-06-14T08:12:58.362Z,97286.60
2018-06-14T08:15:26.867Z,97237.91
2018-06-14T08:17:55.376Z,97229.80
2018-06-14T08:20:23.894Z,97308.92
2018-06-14T08:22:52.650Z,97197.33
2018-06-14T08:25:21.155Z,97201.39
2018-06-14T08:27:49.706Z,97188.20
2018-06-14T08:30:18.220Z,97238.92
2018-06-14T08:32:48.414Z,97140.52
2018-06-14T08:35:16.942Z,97165.88
2018-06-14T08:37:45.433Z,97176.02
2018-06-14T08:40:13.938Z,97214.58
2018-06-14T08:42:42.415Z,97287.62
2018-06-14T08:45:11.367Z,97198.34
2018-06-14T08:47:39.871Z,97127.33
2018-06-14T08:50:08.398Z,97095.88
2018-06-14T08:52:36.910Z,97098.92
2018-06-14T08:55:05.575Z,97174.00
2018-06-14T08:57:34.555Z,97062.41
2018-06-14T09:00:03.108Z,96986.33
2018-06-14T09:02:31.619Z,96967.05
2018-06-14T09:05:00.882Z,96946.77
2018-06-14T09:07:29.372Z,97034.00
2018-06-14T09:09:57.910Z,97040.09
2018-06-14T09:12:26.447Z,96971.11
2018-06-14T09:14:54.942Z,97069.51
2018-06-14T09:17:23.557Z,96978.20
2018-06-14T09:19:52.283Z,96952.85
2018-06-14T09:22:20.799Z,96949.80
2018-06-14T09:24:49.525Z,96812.87
2018-06-14T09:27:18.018Z,96731.72
2018-06-14T09:29:46.534Z,96929.52
2018-06-14T09:32:15.077Z,96909.23
2018-06-14T09:34:43.758Z,96773.30
2018-06-14T09:37:12.262Z,96881.84
2018-06-14T09:39:40.774Z,96810.84
2018-06-14T09:42:09.351Z,96649.55
2018-06-14T09:44:37.887Z,96755.05
2018-06-14T09:47:06.543Z,96661.73
2018-06-14T09:49:35.039Z,96712.44
2018-06-14T09:52:03.583Z,96737.80
2018-06-14T09:54:32.234Z,96689.12
2018-06-14T09:57:01.251Z,96727.66
2018-06-14T09:59:29.756Z,96702.30
2018-06-14T10:01:58.499Z,96725.63
2018-06-14T10:04:27.010Z,96704.33
2018-06-14T10:06:55.522Z,96601.89
2018-06-14T10:09:24.069Z,96859.53
2018-06-14T10:11:52.592Z,96632.31
2018-06-14T10:14:21.481Z,96489.30
2018-06-14T10:16:49.987Z,96647.53
2018-06-14T10:19:18.486Z,96486.25
2018-06-14T10:21:47.253Z,96430.47
2018-06-14T10:24:15.761Z,96511.61
2018-06-14T10:26:44.978Z,96557.25
2018-06-14T10:29:13.511Z,96523.78
2018-06-14T10:31:42.030Z,96558.27
2018-06-14T10:34:10.574Z,96482.20
2018-06-14T10:36:39.109Z,96531.90
2018-06-14T10:39:08.334Z,96499.44
2018-06-14T10:41:36.979Z,96491.33
2018-06-14T10:44:05.498Z,96404.10
2018-06-14T10:46:34.014Z,96552.19
2018-06-14T10:49:02.515Z,96566.38
2018-06-14T10:51:31.368Z,96442.64
2018-06-14T10:53:59.853Z,96503.50
2018-06-14T10:56:28.374Z,96503.50
2018-06-14T10:58:56.981Z,96453.80
2018-06-14T11:01:25.484Z,96553.20
2018-06-14T11:03:54.130Z,96429.45
2018-06-14T11:06:22.676Z,96413.23
2018-06-14T11:08:51.167Z,96479.16
2018-06-14T11:11:19.794Z,96226.61
2018-06-14T11:13:48.464Z,96346.29
2018-06-14T11:16:16.967Z,96560.30
2018-06-14T11:18:45.466Z,96597.83
2018-06-14T11:21:14.008Z,96592.75
2018-06-14T11:23:42.523Z,96401.06
2018-06-14T11:26:11.082Z,96489.30
2018-06-14T11:28:39.835Z,96406.13
2018-06-14T11:31:08.530Z,96259.06
2018-06-14T11:33:37.038Z,96218.50
2018-06-14T11:36:05.676Z,96243.86
2018-06-14T11:38:34.233Z,96310.80
2018-06-14T11:41:02.736Z,96213.43
2018-06-14T11:43:31.263Z,96390.92
2018-06-14T11:45:59.878Z,96410.19
2018-06-14T11:48:28.354Z,96546.09
2018-06-14T11:50:56.850Z,96373.67
2018-06-14T11:53:25.898Z,96516.69
2018-06-14T11:55:54.430Z,96479.16
2018-06-14T11:58:22.913Z,96466.98
2018-06-14T12:00:51.423Z,96573.48
2018-06-14T12:03:20.499Z,96550.16
2018-06-14T12:05:48.970Z,96593.77
2018-06-14T12:08:17.503Z,96393.96
2018-06-14T12:10:46.119Z,96613.04
2018-06-14T12:13:14.953Z,96612.03
2018-06-14T12:15:43.448Z,96604.92
2018-06-14T12:18:12.166Z,96572.47
2018-06-14T12:20:40.727Z,96649.55
2018-06-14T12:23:09.463Z,96657.67
2018-06-14T12:25:37.999Z,96650.57
2018-06-14T12:28:06.710Z,96599.86
2018-06-14T12:30:35.211Z,96716.50
2018-06-14T12:33:03.718Z,96651.59
2018-06-14T12:35:32.239Z,96663.76
2018-06-14T12:38:00.754Z,96633.33
2018-06-14T12:40:29.941Z,96689.12
2018-06-14T12:42:58.431Z,96711.43
2018-06-14T12:45:26.986Z,96725.63
2018-06-14T12:47:55.469Z,96727.66
2018-06-14T12:50:23.971Z,96794.61
2018-06-14T12:52:52.652Z,96805.77
2018-06-14T12:55:21.143Z,96778.38
2018-06-14T12:57:49.655Z,96776.34
2018-06-14T13:00:18.167Z,96753.02
2018-06-14T13:02:46.680Z,96795.62
2018-06-14T13:05:15.323Z,96737.80
2018-06-14T13:07:43.813Z,96759.11
2018-06-14T13:10:12.406Z,96877.78
2018-06-14T13:12:41.323Z,96920.39
2018-06-14T13:15:09.850Z,96924.45
2018-06-14T13:17:38.479Z,96809.82
2018-06-14T13:20:07.542Z,96825.03
2018-06-14T13:22:36.030Z,96841.27
2018-06-14T13:25:04.646Z,96890.97
2018-06-14T13:27:33.163Z,96978.20
2018-06-14T13:30:02.374Z,96895.03
2018-06-14T13:32:30.914Z,96868.66
2018-06-14T13:34:59.403Z,97016.76
2018-06-14T13:37:27.936Z,97050.23
2018-06-14T13:39:56.439Z,96997.48
2018-06-14T13:42:24.977Z,97205.44
2018-06-14T13:44:53.609Z,97181.09
2018-06-14T13:47:22.087Z,97289.64
2018-06-14T13:49:50.589Z,97280.52
2018-06-14T13:52:19.107Z,97357.62
2018-06-14T13:54:47.624Z,97374.86
2018-06-14T13:57:16.179Z,97360.66
2018-06-14T13:59:44.690Z,97328.20
2018-06-14T14:02:13.228Z,97395.16
2018-06-14T14:04:41.831Z,97373.85
2018-06-14T14:07:11.392Z,97379.94
2018-06-14T14:09:39.924Z,97316.02
2018-06-14T14:12:08.440Z,97259.21
2018-06-14T14:14:37.111Z,97414.43
2018-06-14T14:17:05.590Z,97330.23
2018-06-14T14:19:34.080Z,97425.59
2018-06-14T14:22:02.578Z,97401.24
2018-06-14T14:24:31.052Z,97378.92
2018-06-14T14:26:59.575Z,97461.10
2018-06-14T14:29:28.090Z,97414.43
2018-06-14T14:31:56.602Z,97328.20
2018-06-14T14:34:25.127Z,97349.50
2018-06-14T14:36:54.148Z,97345.45
2018-06-14T14:39:22.665Z,97345.45
2018-06-14T14:41:51.148Z,97355.59
2018-06-14T14:44:19.674Z,97390.09
2018-06-14T14:46:48.184Z,97430.66
2018-06-14T14:49:16.695Z,97461.10
2018-06-14T14:51:45.188Z,97412.41
2018-06-14T14:54:13.749Z,97439.80
2018-06-14T14:56:42.281Z,97526.03
2018-06-14T14:59:10.894Z,97436.75
2018-06-14T15:01:39.405Z,97504.73
2018-06-14T15:04:07.923Z,97491.54
2018-06-14T15:06:36.518Z,97431.68
2018-06-14T15:09:07.686Z,97390.09
2018-06-14T15:11:36.239Z,97464.14
2018-06-14T15:14:04.849Z,97408.34
2018-06-14T15:16:33.373Z,97434.72
2018-06-14T15:19:02.316Z,97467.19
2018-06-14T15:21:30.824Z,97432.70
2018-06-14T15:23:59.360Z,97401.24
2018-06-14T15:26:27.927Z,97441.83
2018-06-14T15:28:56.511Z,97452.98
2018-06-14T15:31:25.111Z,97454.00
2018-06-14T15:33:54.498Z,97491.54
2018-06-14T15:36:23.057Z,97454.00
2018-06-14T15:38:51.652Z,97452.98
2018-06-14T15:41:20.389Z,97479.36
2018-06-14T15:43:48.907Z,97497.62
2018-06-14T15:46:17.628Z,97427.63
2018-06-14T15:48:46.236Z,97455.02
2018-06-14T15:51:14.693Z,97427.63
2018-06-14T15:53:43.223Z,97446.90
2018-06-14T15:56:28.231Z,97392.11
2018-06-14T15:58:56.809Z,97322.11
2018-06-14T16:01:25.331Z,97424.58
2018-06-14T16:03:54.420Z,97336.31
2018-06-14T16:06:22.921Z,97379.94
2018-06-14T16:08:51.418Z,97384.00
2018-06-14T16:11:20.096Z,97432.70
2018-06-14T16:13:48.635Z,97435.73
2018-06-14T16:16:17.168Z,97438.78
2018-06-14T16:18:45.689Z,97467.19
2018-06-14T16:21:14.248Z,97486.47
2018-06-14T16:23:43.038Z,97452.98
2018-06-14T16:26:11.622Z,97494.58
2018-06-14T16:28:40.975Z,97488.50
2018-06-14T16:31:09.583Z,97546.33
2018-06-14T16:33:38.126Z,97724.89
2018-06-14T16:36:06.643Z,97717.80
2018-06-14T16:38:35.232Z,97749.25
2018-06-14T16:41:03.880Z,97789.83
2018-06-14T16:43:32.661Z,97827.38
2018-06-14T16:46:01.416Z,97830.42
2018-06-14T16:48:29.863Z,97852.73
2018-06-14T16:50:59.111Z,97935.94
2018-06-14T16:53:27.866Z,97920.72
2018-06-14T16:55:56.413Z,97874.05
2018-06-14T16:58:25.003Z,97922.75
2018-06-14T17:00:53.526Z,97880.13
2018-06-14T17:03:22.594Z,97867.95
2018-06-14T17:05:51.077Z,97868.98
2018-06-14T17:08:20.462Z,97919.70
2018-06-14T17:10:49.084Z,97845.64
2018-06-14T17:13:18.791Z,97904.48
2018-06-14T17:15:47.413Z,97845.64
2018-06-14T17:18:16.442Z,97799.98
2018-06-14T17:20:44.980Z,97734.03
2018-06-14T17:23:14.386Z,97725.91
2018-06-14T17:25:43.024Z,97764.47
2018-06-14T17:28:11.951Z,97818.24
2018-06-14T17:30:40.494Z,97790.84
2018-06-14T17:33:09.053Z,97871.00
2018-06-14T17:35:37.603Z,97872.02
2018-06-14T17:38:07.155Z,97914.64
2018-06-14T17:40:35.811Z,97929.86
2018-06-14T17:43:04.305Z,97917.68
2018-06-14T17:45:32.916Z,97943.05
2018-06-14T17:48:01.409Z,97923.77
2018-06-14T17:50:29.914Z,97994.80
2018-06-14T17:53:01.400Z,97950.15
2018-06-14T17:55:29.975Z,97965.37
2018-06-14T17:57:59.459Z,97952.17
2018-06-14T18:00:28.053Z,98005.95
2018-06-14T18:02:56.595Z,98013.06
2018-06-14T18:05:25.074Z,98001.90
2018-06-14T18:07:53.765Z,98009.00
2018-06-14T18:10:22.441Z,98022.19
2018-06-14T18:12:51.225Z,98005.95
2018-06-14T18:15:19.811Z,98016.11
2018-06-14T18:17:48.651Z,98013.06
2018-06-14T18:20:17.275Z,97994.80
2018-06-14T18:22:45.779Z,98070.90
2018-06-14T18:25:14.732Z,98053.66
2018-06-14T18:27:43.347Z,98009.00
2018-06-14T18:30:11.872Z,97985.66
2018-06-14T18:32:40.939Z,97997.84
2018-06-14T18:35:09.573Z,98028.28
2018-06-14T18:37:38.327Z,98049.59
2018-06-14T18:40:07.396Z,98047.56
2018-06-14T18:42:36.202Z,98056.70
2018-06-14T18:45:05.203Z,98022.19
2018-06-14T18:47:33.816Z,98015.09
2018-06-14T18:50:02.370Z,98024.22
2018-06-14T18:52:31.078Z,98012.05
2018-06-14T18:54:59.687Z,98035.38
2018-06-14T18:57:28.251Z,98039.45
2018-06-14T18:59:56.749Z,98015.09
2018-06-14T19:02:25.285Z,98038.43
2018-06-14T19:04:53.798Z,98030.31
2018-06-14T19:07:22.709Z,98036.40
2018-06-14T19:09:51.263Z,98017.12
2018-06-14T19:12:20.182Z,98046.55
2018-06-14T19:14:48.780Z,98019.15
2018-06-14T19:17:17.362Z,98010.02
2018-06-14T19:19:45.913Z,97982.63
2018-06-14T19:22:14.558Z,98025.23
2018-06-14T19:24:43.146Z,98020.16
2018-06-14T19:27:11.655Z,98011.03
2018-06-14T19:29:40.187Z,98041.47
2018-06-14T19:32:08.791Z,98028.28
2018-06-14T19:34:37.297Z,97985.66
2018-06-14T19:37:05.900Z,98016.11
2018-06-14T19:39:34.474Z,98022.19
2018-06-14T19:42:03.103Z,98020.16
2018-06-14T19:44:31.703Z,98017.12
2018-06-14T19:47:01.406Z,97984.65
2018-06-14T19:49:29.932Z,97997.84
2018-06-14T19:51:58.610Z,98016.11
2018-06-14T19:54:27.871Z,98000.88
2018-06-14T19:56:56.539Z,98018.13
2018-06-14T19:59:25.140Z,98016.11
2018-06-14T20:01:53.642Z,98047.56
2018-06-14T20:04:23.387Z,97999.88
2018-06-14T20:06:51.988Z,98070.90
2018-06-14T20:09:20.493Z,98044.52
2018-06-14T20:11:49.030Z,98081.05
2018-06-14T20:14:17.566Z,98078.00
2018-06-14T20:16:46.200Z,98063.80
2018-06-14T20:19:15.267Z,98049.59
2018-06-14T20:21:43.803Z,98047.56
2018-06-14T20:24:12.443Z,98062.78
2018-06-14T20:26:41.698Z,98047.56
2018-06-14T20:29:10.171Z,98030.31
2018-06-14T20:31:38.672Z,98082.06
2018-06-14T20:34:07.439Z,98093.22
2018-06-14T20:36:36.022Z,98095.25
2018-06-14T20:39:07.164Z,98055.68
2018-06-14T20:41:35.756Z,98097.28
2018-06-14T20:44:04.659Z,98092.20
2018-06-14T20:46:33.171Z,98085.11
2018-06-14T20:49:01.690Z,98080.03
2018-06-14T20:51:30.229Z,98043.50
2018-06-14T20:53:58.767Z,98082.06
2018-06-14T20:56:27.314Z,98067.86
2018-06-14T20:58:55.826Z,98105.40
2018-06-14T21:01:24.318Z,98081.05
2018-06-14T21:03:53.523Z,98087.14
2018-06-14T21:06:22.243Z,98109.46
2018-06-14T21:08:55.110Z,98100.33
2018-06-14T21:11:23.672Z,98066.84
2018-06-14T21:13:52.176Z,98079.02
2018-06-14T21:16:21.143Z,98112.50
2018-06-14T21:18:49.725Z,98061.77
2018-06-14T21:21:18.353Z,98078.00
2018-06-14T21:23:47.252Z,98048.58
2018-06-14T21:26:15.776Z,98069.89
2018-06-14T21:28:44.311Z,98056.70
2018-06-14T21:31:16.914Z,98021.17
2018-06-14T21:33:45.492Z,98064.81
2018-06-14T21:36:13.995Z,98103.37
2018-06-14T21:38:42.510Z,98083.08
2018-06-14T21:41:11.454Z,98091.19
2018-06-14T21:43:39.958Z,98089.16
2018-06-14T21:46:08.587Z,98075.97
2018-06-14T21:48:41.780Z,98127.73
2018-06-14T21:51:10.618Z,98110.48
2018-06-14T21:53:39.861Z,98130.77
2018-06-14T21:56:08.648Z,98105.40
2018-06-14T21:58:37.258Z,98108.45
2018-06-14T22:01:06.048Z,98108.45
2018-06-14T22:03:40.307Z,98080.03
2018-06-14T22:06:09.006Z,98093.22
2018-06-14T22:08:37.564Z,98112.50
2018-06-14T22:11:06.066Z,98088.15
2018-06-14T22:13:34.984Z,98101.34
2018-06-14T22:16:03.489Z,98120.63
2018-06-14T22:18:31.954Z,98092.20
2018-06-14T22:21:00.965Z,98092.20
2018-06-14T22:23:29.478Z,98095.25
2018-06-14T22:25:57.982Z,98075.97
2018-06-14T22:28:28.675Z,98069.89
2018-06-14T22:30:57.173Z,98101.34
2018-06-14T22:33:37.012Z,98114.53
2018-06-14T22:36:05.630Z,98098.30
2018-06-14T22:38:34.317Z,98082.06
2018-06-14T22:41:02.850Z,98105.40
2018-06-14T22:43:31.446Z,98107.43
2018-06-14T22:45:59.939Z,98123.67
2018-06-14T22:48:28.446Z,98133.81
2018-06-14T22:51:08.327Z,98140.92
2018-06-14T22:53:36.825Z,98095.25
2018-06-14T22:56:06.388Z,98147.00
2018-06-14T22:58:35.033Z,98117.58
2018-06-14T23:01:36.342Z,98104.39
2018-06-14T23:04:05.412Z,98142.95
2018-06-14T23:06:33.966Z,98119.61
2018-06-14T23:09:12.257Z,98112.50
2018-06-14T23:11:40.842Z,98125.70
2018-06-14T23:14:09.338Z,98127.73
2018-06-14T23:16:37.880Z,98127.73
2018-06-14T23:19:06.400Z,98129.75
2018-06-14T23:21:34.944Z,98150.05
2018-06-14T23:24:03.461Z,98141.93
2018-06-14T23:26:31.966Z,98145.98
2018-06-14T23:29:00.515Z,98133.81
2018-06-14T23:31:29.075Z,98125.70
2018-06-14T23:33:57.576Z,98158.17
2018-06-14T23:36:26.151Z,98158.17
2018-06-14T23:38:54.719Z,98184.55
2018-06-14T23:41:23.235Z,98158.17
2018-06-14T23:43:52.257Z,98155.13
2018-06-14T23:48:56.171Z,98182.52
2018-06-14T23:51:25.499Z,98143.96
2018-06-14T23:53:57.657Z,98183.53
2018-06-14T23:56:28.237Z,98129.75
2018-06-14T23:59:03.396Z,98168.31
